»·PEaware :: N972TB KSBA-KPSP

N972TB :: KSBA-KPSP

FLIGHT INFORMATION

Flight Status: Arrived
Operator: Privately registered:
United States
More flights under this callsign
Pilot: Justin A. (23118)
Aircraft: EMBRAER PHENOM 300
(E55P)
More flights by this aircraft type
Origin: KSBA Santa Barbara Mun
United States
Destination: KPSP Palm Springs Intl
United States
More flights between these airports :: More routes between these airports
Route: +KWANG5 HENER PMD V137 PSP
File this flight plan on PilotEdge
Remarks:
Altitude:
(Current/Filed)
19,000ft
Speed:
(Current/Filed)
340kts
Departed: 06-Feb-19 05:55 PM
Arrived: 06-Feb-19 06:39 PM
Distance/Time
Traveled:
169nm/0:44
Distance/Time
To Go:
Arrived

Flight Plot

Page will automatically refresh every two minutes.


Map Options




Map Legend


Flown Route
Filed Route
Departure Airport
Arrival Airport
Navaid (VOR, NDB)
Fix

Horizontal Profiles

Position Reports

Time Latitude Longitude Heading Altitude Ground
Speed
06-Feb-19 17:25 34.422516 -119.835850 344 13ft 0kts
06-Feb-19 17:26 34.422516 -119.835850 344 13ft 0kts
06-Feb-19 17:27 34.422516 -119.835850 344 13ft 0kts
06-Feb-19 17:28 34.422516 -119.835850 344 13ft 0kts
06-Feb-19 17:29 34.422516 -119.835850 344 13ft 0kts
06-Feb-19 17:30 34.422516 -119.835850 344 13ft 0kts
06-Feb-19 17:31 34.422516 -119.835850 344 13ft 0kts
06-Feb-19 17:32 34.422516 -119.835850 344 13ft 0kts
06-Feb-19 17:33 34.422517 -119.835851 344 13ft 0kts
06-Feb-19 17:34 34.422519 -119.835851 344 13ft 0kts
06-Feb-19 17:35 34.422522 -119.835852 344 13ft 0kts
06-Feb-19 17:37 34.422524 -119.835853 344 13ft 0kts
06-Feb-19 17:38 34.422526 -119.835854 344 13ft 0kts
06-Feb-19 17:39 34.422529 -119.835854 344 13ft 0kts
06-Feb-19 17:40 34.422531 -119.835855 344 13ft 0kts
06-Feb-19 17:41 34.422533 -119.835856 344 13ft 0kts
06-Feb-19 17:42 34.422536 -119.835857 344 13ft 0kts
06-Feb-19 17:43 34.422538 -119.835858 344 13ft 0kts
06-Feb-19 17:44 34.422540 -119.835858 344 13ft 0kts
06-Feb-19 17:45 34.422543 -119.835859 344 13ft 0kts
06-Feb-19 17:46 34.422545 -119.835860 344 13ft 0kts
06-Feb-19 17:47 34.422547 -119.835861 344 13ft 0kts
06-Feb-19 17:48 34.422550 -119.835861 344 13ft 0kts
06-Feb-19 17:49 34.422552 -119.835862 344 13ft 0kts
06-Feb-19 17:50 34.422554 -119.835863 344 13ft 0kts
06-Feb-19 17:51 34.422772 -119.837177 327 13ft 4kts
06-Feb-19 17:52 34.425579 -119.838006 345 13ft 16kts
06-Feb-19 17:53 34.426767 -119.836282 88 13ft 8kts
06-Feb-19 17:54 34.426801 -119.834960 86 13ft 0kts
06-Feb-19 17:55 34.427851 -119.837688 269 13ft 73kts
06-Feb-19 17:56 34.425259 -119.890197 264 1529ft 191kts
06-Feb-19 17:56 34.411613 -119.947350 224 2784ft 281kts
06-Feb-19 17:57 34.358143 -119.926494 135 5248ft 211kts
06-Feb-19 17:59 34.313384 -119.879374 110 8074ft 156kts
06-Feb-19 17:59 34.309720 -119.844008 78 9991ft 128kts
06-Feb-19 18:00 34.330099 -119.784826 65 11222ft 276kts
06-Feb-19 18:01 34.353442 -119.714232 79 10861ft 306kts
06-Feb-19 18:02 34.340056 -119.608721 108 9405ft 331kts
06-Feb-19 18:03 34.316087 -119.502789 93 8236ft 316kts
06-Feb-19 18:04 34.317690 -119.409096 85 8619ft 308kts
06-Feb-19 18:05 34.325635 -119.298663 84 11141ft 344kts
06-Feb-19 18:06 34.344516 -119.183504 73 13652ft 350kts
06-Feb-19 18:07 34.372641 -119.070941 72 16144ft 349kts
06-Feb-19 18:08 34.401605 -118.959449 71 18643ft 344kts
06-Feb-19 18:09 34.432106 -118.842356 71 19119ft 381kts
06-Feb-19 18:10 34.464768 -118.716463 72 19139ft 399kts
06-Feb-19 18:11 34.497280 -118.590429 72 19137ft 382kts
06-Feb-19 18:12 34.528415 -118.469180 72 19157ft 373kts
06-Feb-19 18:13 34.557197 -118.356671 72 19161ft 435kts
06-Feb-19 18:14 34.594832 -118.208829 72 19161ft 479kts
06-Feb-19 18:15 34.622235 -118.064066 98 19155ft 411kts
06-Feb-19 18:16 34.580538 -117.941105 119 19157ft 384kts
06-Feb-19 18:17 34.527689 -117.830468 120 19158ft 374kts
06-Feb-19 18:18 34.476152 -117.721995 119 19158ft 370kts
06-Feb-19 18:19 34.425473 -117.613528 119 19158ft 369kts
06-Feb-19 18:20 34.375326 -117.505528 119 19158ft 368kts
06-Feb-19 18:21 34.324863 -117.396795 119 19158ft 368kts
06-Feb-19 18:22 34.274659 -117.288817 119 19158ft 368kts
06-Feb-19 18:23 34.224398 -117.181003 119 19158ft 368kts
06-Feb-19 18:24 34.173939 -117.073081 119 19158ft 368kts
06-Feb-19 18:25 34.128378 -116.975909 119 19158ft 368kts
06-Feb-19 18:26 34.077266 -116.867225 119 18636ft 381kts
06-Feb-19 18:27 34.023440 -116.753130 119 17146ft 399kts
06-Feb-19 18:28 33.966790 -116.633436 119 15659ft 449kts
06-Feb-19 18:29 33.913419 -116.520957 120 13776ft 330kts
06-Feb-19 18:30 33.863901 -116.441659 137 11578ft 278kts
06-Feb-19 18:31 33.812884 -116.376440 132 9380ft 260kts
06-Feb-19 18:32 33.765219 -116.312652 133 7177ft 252kts
06-Feb-19 18:33 33.713786 -116.332847 248 5377ft 225kts
06-Feb-19 18:34 33.715898 -116.393238 310 5155ft 175kts
06-Feb-19 18:35 33.750176 -116.436474 320 3983ft 195kts
06-Feb-19 18:36 33.791121 -116.474113 324 1625ft 153kts
06-Feb-19 18:37 33.819166 -116.498317 322 496ft 105kts
06-Feb-19 18:38 33.833913 -116.511948 219 428ft 9kts
06-Feb-19 18:39 33.833413 -116.512430 218 428ft 3kts
06-Feb-19 18:40 33.833229 -116.512611 219 428ft 0kts
06-Feb-19 18:41 33.833077 -116.512760 219 428ft 0kts
06-Feb-19 18:42 33.829541 -116.509774 143 428ft 18kts
06-Feb-19 18:43 33.826932 -116.507371 150 428ft 10kts
06-Feb-19 18:44 33.825627 -116.507216 210 428ft 10kts
06-Feb-19 18:45 33.825627 -116.507216 210 428ft 10kts
06-Feb-19 18:46 33.825399 -116.507418 236 428ft 0kts
06-Feb-19 18:47 33.825328 -116.507546 236 428ft 0kts
06-Feb-19 18:48 33.825297 -116.507602 236 428ft 0kts

Navigation Log

Ident Type
Flight plan parsing failed, navigation log unavailable